sensor_id;sensor_type;location;lat;lon;timestamp;P1;durP1;ratioP1;P2;durP2;ratioP2
34926;SDS011;21132;48.308;14.274;2023-06-22T00:01:03;8.95;;;3.63;;
34926;SDS011;21132;48.308;14.274;2023-06-22T00:03:35;8.32;;;4.25;;
34926;SDS011;21132;48.308;14.274;2023-06-22T00:06:00;5.03;;;3.38;;
34926;SDS011;21132;48.308;14.274;2023-06-22T00:08:29;4.75;;;2.88;;
34926;SDS011;21132;48.308;14.274;2023-06-22T00:11:06;5.72;;;3.42;;
34926;SDS011;21132;48.308;14.274;2023-06-22T00:13:35;9.70;;;3.92;;
34926;SDS011;21132;48.308;14.274;2023-06-22T00:16:06;6.32;;;3.65;;
34926;SDS011;21132;48.308;14.274;2023-06-22T00:18:35;7.18;;;3.40;;
34926;SDS011;21132;48.308;14.274;2023-06-22T00:21:15;5.85;;;2.92;;
34926;SDS011;21132;48.308;14.274;2023-06-22T00:23:41;7.55;;;3.80;;
34926;SDS011;21132;48.308;14.274;2023-06-22T00:26:24;11.65;;;3.78;;
34926;SDS011;21132;48.308;14.274;2023-06-22T00:29:02;9.98;;;3.72;;
34926;SDS011;21132;48.308;14.274;2023-06-22T00:31:30;7.75;;;3.70;;
34926;SDS011;21132;48.308;14.274;2023-06-22T00:33:59;9.20;;;3.05;;
34926;SDS011;21132;48.308;14.274;2023-06-22T00:36:27;9.23;;;3.38;;
34926;SDS011;21132;48.308;14.274;2023-06-22T00:38:56;8.55;;;3.70;;
34926;SDS011;21132;48.308;14.274;2023-06-22T00:41:28;7.03;;;2.97;;
34926;SDS011;21132;48.308;14.274;2023-06-22T00:43:54;9.82;;;3.67;;
34926;SDS011;21132;48.308;14.274;2023-06-22T00:46:20;14.63;;;3.50;;
34926;SDS011;21132;48.308;14.274;2023-06-22T00:48:50;6.00;;;2.83;;
34926;SDS011;21132;48.308;14.274;2023-06-22T00:51:22;7.60;;;3.13;;
34926;SDS011;21132;48.308;14.274;2023-06-22T00:53:49;6.55;;;2.63;;
34926;SDS011;21132;48.308;14.274;2023-06-22T00:56:22;8.48;;;3.58;;
34926;SDS011;21132;48.308;14.274;2023-06-22T00:58:57;9.02;;;3.95;;
34926;SDS011;21132;48.308;14.274;2023-06-22T01:01:24;9.52;;;3.17;;
34926;SDS011;21132;48.308;14.274;2023-06-22T01:03:53;7.90;;;2.92;;
34926;SDS011;21132;48.308;14.274;2023-06-22T01:06:34;10.93;;;4.07;;
34926;SDS011;21132;48.308;14.274;2023-06-22T01:09:12;4.70;;;2.90;;
34926;SDS011;21132;48.308;14.274;2023-06-22T01:11:51;10.27;;;3.35;;
34926;SDS011;21132;48.308;14.274;2023-06-22T01:14:28;7.53;;;3.83;;
34926;SDS011;21132;48.308;14.274;2023-06-22T01:17:06;12.13;;;3.53;;
34926;SDS011;21132;48.308;14.274;2023-06-22T01:19:49;7.15;;;3.70;;
34926;SDS011;21132;48.308;14.274;2023-06-22T01:22:23;10.13;;;3.15;;
34926;SDS011;21132;48.308;14.274;2023-06-22T01:30:18;7.43;;;3.28;;
34926;SDS011;21132;48.308;14.274;2023-06-22T01:32:44;6.72;;;3.53;;
34926;SDS011;21132;48.308;14.274;2023-06-22T01:35:16;8.93;;;2.88;;
34926;SDS011;21132;48.308;14.274;2023-06-22T01:37:48;11.80;;;3.10;;
34926;SDS011;21132;48.308;14.274;2023-06-22T01:40:17;6.07;;;3.05;;
34926;SDS011;21132;48.308;14.274;2023-06-22T01:42:54;8.55;;;3.45;;
34926;SDS011;21132;48.308;14.274;2023-06-22T01:45:20;4.38;;;2.85;;
34926;SDS011;21132;48.308;14.274;2023-06-22T01:47:50;8.13;;;3.53;;
34926;SDS011;21132;48.308;14.274;2023-06-22T01:50:16;7.18;;;3.90;;
34926;SDS011;21132;48.308;14.274;2023-06-22T01:52:42;6.75;;;2.90;;
34926;SDS011;21132;48.308;14.274;2023-06-22T01:55:09;4.95;;;2.65;;
34926;SDS011;21132;48.308;14.274;2023-06-22T01:57:38;6.60;;;2.70;;
34926;SDS011;21132;48.308;14.274;2023-06-22T02:00:11;6.50;;;3.25;;
34926;SDS011;21132;48.308;14.274;2023-06-22T02:05:36;4.07;;;2.90;;
34926;SDS011;21132;48.308;14.274;2023-06-22T02:08:20;5.95;;;2.97;;
34926;SDS011;21132;48.308;14.274;2023-06-22T02:10:51;8.65;;;3.78;;
34926;SDS011;21132;48.308;14.274;2023-06-22T02:13:19;9.25;;;3.78;;
34926;SDS011;21132;48.308;14.274;2023-06-22T02:15:47;5.95;;;3.22;;
34926;SDS011;21132;48.308;14.274;2023-06-22T02:18:22;8.55;;;3.60;;
34926;SDS011;21132;48.308;14.274;2023-06-22T02:20:51;7.68;;;3.83;;
34926;SDS011;21132;48.308;14.274;2023-06-22T02:23:25;7.63;;;3.28;;
34926;SDS011;21132;48.308;14.274;2023-06-22T02:25:53;5.70;;;3.60;;
34926;SDS011;21132;48.308;14.274;2023-06-22T02:28:19;9.05;;;3.75;;
34926;SDS011;21132;48.308;14.274;2023-06-22T02:30:48;6.95;;;3.10;;
34926;SDS011;21132;48.308;14.274;2023-06-22T02:33:14;6.35;;;3.55;;
34926;SDS011;21132;48.308;14.274;2023-06-22T02:35:42;6.45;;;3.45;;
34926;SDS011;21132;48.308;14.274;2023-06-22T02:38:13;9.57;;;4.35;;
34926;SDS011;21132;48.308;14.274;2023-06-22T02:40:51;6.18;;;3.08;;
34926;SDS011;21132;48.308;14.274;2023-06-22T02:43:19;8.98;;;3.33;;
34926;SDS011;21132;48.308;14.274;2023-06-22T02:45:56;8.65;;;3.60;;
34926;SDS011;21132;48.308;14.274;2023-06-22T02:48:22;10.02;;;3.28;;
34926;SDS011;21132;48.308;14.274;2023-06-22T02:50:48;4.38;;;2.83;;
34926;SDS011;21132;48.308;14.274;2023-06-22T02:53:13;8.98;;;4.50;;
34926;SDS011;21132;48.308;14.274;2023-06-22T02:55:45;9.60;;;3.50;;
34926;SDS011;21132;48.308;14.274;2023-06-22T02:58:11;11.50;;;4.25;;
34926;SDS011;21132;48.308;14.274;2023-06-22T03:00:39;9.30;;;3.42;;
34926;SDS011;21132;48.308;14.274;2023-06-22T03:03:08;7.63;;;3.42;;
34926;SDS011;21132;48.308;14.274;2023-06-22T03:05:36;7.53;;;3.42;;
34926;SDS011;21132;48.308;14.274;2023-06-22T03:08:04;8.35;;;3.20;;
34926;SDS011;21132;48.308;14.274;2023-06-22T03:10:32;6.78;;;3.03;;
34926;SDS011;21132;48.308;14.274;2023-06-22T03:13:10;9.23;;;3.90;;
34926;SDS011;21132;48.308;14.274;2023-06-22T03:15:35;9.52;;;4.32;;
34926;SDS011;21132;48.308;14.274;2023-06-22T03:18:01;12.23;;;3.58;;
34926;SDS011;21132;48.308;14.274;2023-06-22T03:23:44;7.88;;;3.67;;
34926;SDS011;21132;48.308;14.274;2023-06-22T03:26:10;8.38;;;3.88;;
34926;SDS011;21132;48.308;14.274;2023-06-22T03:28:38;5.30;;;3.78;;
34926;SDS011;21132;48.308;14.274;2023-06-22T03:31:13;5.28;;;3.38;;
34926;SDS011;21132;48.308;14.274;2023-06-22T03:33:38;5.28;;;2.75;;
34926;SDS011;21132;48.308;14.274;2023-06-22T03:36:04;7.35;;;3.35;;
34926;SDS011;21132;48.308;14.274;2023-06-22T03:38:30;7.07;;;2.75;;
34926;SDS011;21132;48.308;14.274;2023-06-22T03:41:01;9.05;;;4.00;;
34926;SDS011;21132;48.308;14.274;2023-06-22T03:49:46;11.20;;;3.53;;
34926;SDS011;21132;48.308;14.274;2023-06-22T03:52:12;6.57;;;3.67;;
34926;SDS011;21132;48.308;14.274;2023-06-22T03:54:58;8.30;;;3.42;;
34926;SDS011;21132;48.308;14.274;2023-06-22T03:57:27;4.18;;;3.10;;
34926;SDS011;21132;48.308;14.274;2023-06-22T03:59:56;6.68;;;3.25;;
34926;SDS011;21132;48.308;14.274;2023-06-22T04:02:29;9.45;;;3.50;;
34926;SDS011;21132;48.308;14.274;2023-06-22T04:04:57;6.47;;;3.53;;
34926;SDS011;21132;48.308;14.274;2023-06-22T04:07:23;4.18;;;3.03;;
34926;SDS011;21132;48.308;14.274;2023-06-22T04:10:05;5.82;;;3.10;;
34926;SDS011;21132;48.308;14.274;2023-06-22T04:12:31;6.25;;;3.20;;
34926;SDS011;21132;48.308;14.274;2023-06-22T04:15:02;7.68;;;3.72;;
34926;SDS011;21132;48.308;14.274;2023-06-22T04:17:28;11.68;;;3.80;;
34926;SDS011;21132;48.308;14.274;2023-06-22T04:19:54;6.22;;;4.13;;
34926;SDS011;21132;48.308;14.274;2023-06-22T04:22:23;8.52;;;3.88;;
34926;SDS011;21132;48.308;14.274;2023-06-22T04:24:49;5.90;;;3.33;;
34926;SDS011;21132;48.308;14.274;2023-06-22T04:30:37;5.72;;;3.25;;
34926;SDS011;21132;48.308;14.274;2023-06-22T04:33:20;5.63;;;3.30;;
34926;SDS011;21132;48.308;14.274;2023-06-22T04:35:55;6.03;;;3.42;;
34926;SDS011;21132;48.308;14.274;2023-06-22T04:38:29;8.27;;;3.67;;
34926;SDS011;21132;48.308;14.274;2023-06-22T04:40:59;12.20;;;3.00;;
34926;SDS011;21132;48.308;14.274;2023-06-22T04:43:28;6.90;;;3.17;;
34926;SDS011;21132;48.308;14.274;2023-06-22T04:45:56;9.13;;;3.65;;
34926;SDS011;21132;48.308;14.274;2023-06-22T04:48:28;8.85;;;3.92;;
34926;SDS011;21132;48.308;14.274;2023-06-22T04:51:01;4.43;;;3.17;;
34926;SDS011;21132;48.308;14.274;2023-06-22T04:53:28;6.93;;;3.30;;
34926;SDS011;21132;48.308;14.274;2023-06-22T04:55:58;8.93;;;3.70;;
34926;SDS011;21132;48.308;14.274;2023-06-22T04:58:23;8.13;;;3.70;;
34926;SDS011;21132;48.308;14.274;2023-06-22T05:03:42;9.02;;;4.78;;
34926;SDS011;21132;48.308;14.274;2023-06-22T05:07:10;9.68;;;4.45;;
34926;SDS011;21132;48.308;14.274;2023-06-22T05:10:37;8.88;;;3.95;;
34926;SDS011;21132;48.308;14.274;2023-06-22T05:14:04;10.93;;;4.40;;
34926;SDS011;21132;48.308;14.274;2023-06-22T05:17:32;9.95;;;3.67;;
34926;SDS011;21132;48.308;14.274;2023-06-22T05:20:21;10.63;;;4.90;;
34926;SDS011;21132;48.308;14.274;2023-06-22T05:22:49;9.90;;;4.53;;
34926;SDS011;21132;48.308;14.274;2023-06-22T05:25:18;12.07;;;4.00;;
34926;SDS011;21132;48.308;14.274;2023-06-22T05:27:43;7.40;;;3.83;;
34926;SDS011;21132;48.308;14.274;2023-06-22T05:30:09;8.68;;;4.22;;
34926;SDS011;21132;48.308;14.274;2023-06-22T05:32:36;6.55;;;3.83;;
34926;SDS011;21132;48.308;14.274;2023-06-22T05:35:05;8.73;;;4.10;;
34926;SDS011;21132;48.308;14.274;2023-06-22T05:37:31;7.35;;;3.70;;
34926;SDS011;21132;48.308;14.274;2023-06-22T05:39:59;9.27;;;3.95;;
34926;SDS011;21132;48.308;14.274;2023-06-22T05:42:25;5.50;;;3.40;;
34926;SDS011;21132;48.308;14.274;2023-06-22T05:44:53;8.68;;;3.97;;
34926;SDS011;21132;48.308;14.274;2023-06-22T05:47:19;7.25;;;3.70;;
34926;SDS011;21132;48.308;14.274;2023-06-22T05:49:44;12.23;;;4.07;;
34926;SDS011;21132;48.308;14.274;2023-06-22T05:52:10;7.93;;;3.63;;
34926;SDS011;21132;48.308;14.274;2023-06-22T05:54:36;6.80;;;3.80;;
34926;SDS011;21132;48.308;14.274;2023-06-22T06:03:21;12.25;;;3.38;;
34926;SDS011;21132;48.308;14.274;2023-06-22T06:05:49;7.60;;;3.95;;
34926;SDS011;21132;48.308;14.274;2023-06-22T06:08:41;8.48;;;4.18;;
34926;SDS011;21132;48.308;14.274;2023-06-22T06:11:18;12.57;;;5.22;;
34926;SDS011;21132;48.308;14.274;2023-06-22T06:17:22;9.88;;;4.50;;
34926;SDS011;21132;48.308;14.274;2023-06-22T06:20:30;13.40;;;4.32;;
34926;SDS011;21132;48.308;14.274;2023-06-22T06:23:48;9.68;;;4.65;;
34926;SDS011;21132;48.308;14.274;2023-06-22T06:27:12;8.52;;;4.57;;
34926;SDS011;21132;48.308;14.274;2023-06-22T06:30:35;15.13;;;5.28;;
34926;SDS011;21132;48.308;14.274;2023-06-22T06:33:59;11.65;;;5.50;;
34926;SDS011;21132;48.308;14.274;2023-06-22T06:37:20;9.93;;;5.22;;
34926;SDS011;21132;48.308;14.274;2023-06-22T06:40:04;11.73;;;5.68;;
34926;SDS011;21132;48.308;14.274;2023-06-22T06:43:10;8.23;;;4.95;;
34926;SDS011;21132;48.308;14.274;2023-06-22T06:46:29;15.80;;;5.45;;
34926;SDS011;21132;48.308;14.274;2023-06-22T06:49:53;11.10;;;5.57;;
34926;SDS011;21132;48.308;14.274;2023-06-22T06:53:17;11.60;;;6.53;;
34926;SDS011;21132;48.308;14.274;2023-06-22T06:56:40;14.07;;;5.80;;
34926;SDS011;21132;48.308;14.274;2023-06-22T07:00:04;9.68;;;5.45;;
34926;SDS011;21132;48.308;14.274;2023-06-22T07:03:08;10.25;;;5.47;;
34926;SDS011;21132;48.308;14.274;2023-06-22T07:06:26;9.63;;;4.82;;
34926;SDS011;21132;48.308;14.274;2023-06-22T07:09:50;11.45;;;4.82;;
34926;SDS011;21132;48.308;14.274;2023-06-22T07:13:13;7.55;;;3.70;;
34926;SDS011;21132;48.308;14.274;2023-06-22T07:16:37;6.97;;;4.20;;
34926;SDS011;21132;48.308;14.274;2023-06-22T07:23:06;7.20;;;4.03;;
34926;SDS011;21132;48.308;14.274;2023-06-22T07:26:25;9.98;;;4.40;;
34926;SDS011;21132;48.308;14.274;2023-06-22T07:29:49;7.30;;;4.20;;
34926;SDS011;21132;48.308;14.274;2023-06-22T07:33:13;8.13;;;4.10;;
34926;SDS011;21132;48.308;14.274;2023-06-22T07:36:37;8.40;;;4.47;;
34926;SDS011;21132;48.308;14.274;2023-06-22T07:39:55;6.25;;;3.83;;
34926;SDS011;21132;48.308;14.274;2023-06-22T07:43:16;7.32;;;4.07;;
34926;SDS011;21132;48.308;14.274;2023-06-22T07:46:40;9.40;;;4.00;;
34926;SDS011;21132;48.308;14.274;2023-06-22T07:49:43;6.88;;;4.15;;
34926;SDS011;21132;48.308;14.274;2023-06-22T07:53:04;7.90;;;4.18;;
34926;SDS011;21132;48.308;14.274;2023-06-22T07:56:11;9.23;;;4.13;;
34926;SDS011;21132;48.308;14.274;2023-06-22T07:59:36;10.65;;;4.40;;
34926;SDS011;21132;48.308;14.274;2023-06-22T08:02:58;7.30;;;3.97;;
34926;SDS011;21132;48.308;14.274;2023-06-22T08:06:22;10.52;;;4.32;;
34926;SDS011;21132;48.308;14.274;2023-06-22T08:09:27;7.72;;;4.40;;
34926;SDS011;21132;48.308;14.274;2023-06-22T08:12:19;10.48;;;4.53;;
34926;SDS011;21132;48.308;14.274;2023-06-22T08:15:37;7.75;;;4.38;;
34926;SDS011;21132;48.308;14.274;2023-06-22T08:18:43;8.52;;;4.30;;
34926;SDS011;21132;48.308;14.274;2023-06-22T08:22:07;8.00;;;4.60;;
34926;SDS011;21132;48.308;14.274;2023-06-22T08:25:13;11.75;;;5.35;;
34926;SDS011;21132;48.308;14.274;2023-06-22T08:28:37;9.65;;;4.35;;
34926;SDS011;21132;48.308;14.274;2023-06-22T08:31:45;6.80;;;4.88;;
34926;SDS011;21132;48.308;14.274;2023-06-22T08:34:49;10.60;;;5.03;;
34926;SDS011;21132;48.308;14.274;2023-06-22T08:38:10;11.48;;;6.40;;
34926;SDS011;21132;48.308;14.274;2023-06-22T08:41:35;21.55;;;6.07;;
34926;SDS011;21132;48.308;14.274;2023-06-22T08:44:39;9.65;;;4.63;;
34926;SDS011;21132;48.308;14.274;2023-06-22T08:50:48;10.98;;;5.35;;
34926;SDS011;21132;48.308;14.274;2023-06-22T08:54:12;13.75;;;6.15;;
34926;SDS011;21132;48.308;14.274;2023-06-22T08:57:34;16.80;;;5.97;;
34926;SDS011;21132;48.308;14.274;2023-06-22T09:00:51;11.30;;;5.85;;
34926;SDS011;21132;48.308;14.274;2023-06-22T09:04:15;16.45;;;4.47;;
34926;SDS011;21132;48.308;14.274;2023-06-22T09:11:08;12.43;;;5.45;;
34926;SDS011;21132;48.308;14.274;2023-06-22T09:14:11;17.53;;;6.20;;
34926;SDS011;21132;48.308;14.274;2023-06-22T09:17:14;11.50;;;5.43;;
34926;SDS011;21132;48.308;14.274;2023-06-22T09:20:38;14.38;;;5.57;;
34926;SDS011;21132;48.308;14.274;2023-06-22T09:23:25;17.55;;;6.28;;
34926;SDS011;21132;48.308;14.274;2023-06-22T09:26:33;15.02;;;5.53;;
34926;SDS011;21132;48.308;14.274;2023-06-22T09:29:19;11.18;;;5.75;;
34926;SDS011;21132;48.308;14.274;2023-06-22T09:31:47;9.93;;;5.53;;
34926;SDS011;21132;48.308;14.274;2023-06-22T09:34:18;9.23;;;4.63;;
34926;SDS011;21132;48.308;14.274;2023-06-22T09:36:54;20.95;;;5.85;;
34926;SDS011;21132;48.308;14.274;2023-06-22T09:39:27;16.50;;;5.57;;
34926;SDS011;21132;48.308;14.274;2023-06-22T09:41:53;11.27;;;4.63;;
34926;SDS011;21132;48.308;14.274;2023-06-22T09:44:19;14.20;;;5.50;;
34926;SDS011;21132;48.308;14.274;2023-06-22T09:46:58;19.15;;;5.70;;
34926;SDS011;21132;48.308;14.274;2023-06-22T09:49:24;13.80;;;5.38;;
34926;SDS011;21132;48.308;14.274;2023-06-22T09:51:53;17.52;;;5.15;;
34926;SDS011;21132;48.308;14.274;2023-06-22T09:54:24;10.30;;;4.85;;
34926;SDS011;21132;48.308;14.274;2023-06-22T09:56:49;14.65;;;5.60;;
34926;SDS011;21132;48.308;14.274;2023-06-22T09:59:15;13.20;;;6.05;;
34926;SDS011;21132;48.308;14.274;2023-06-22T10:02:04;14.80;;;6.07;;
34926;SDS011;21132;48.308;14.274;2023-06-22T10:04:29;15.75;;;6.05;;
34926;SDS011;21132;48.308;14.274;2023-06-22T10:06:57;11.15;;;5.32;;
34926;SDS011;21132;48.308;14.274;2023-06-22T10:09:23;25.55;;;5.30;;
34926;SDS011;21132;48.308;14.274;2023-06-22T10:11:57;14.93;;;6.20;;
34926;SDS011;21132;48.308;14.274;2023-06-22T10:14:24;9.43;;;5.05;;
34926;SDS011;21132;48.308;14.274;2023-06-22T10:16:51;10.20;;;4.97;;
34926;SDS011;21132;48.308;14.274;2023-06-22T10:19:18;15.60;;;5.53;;
34926;SDS011;21132;48.308;14.274;2023-06-22T10:21:45;10.40;;;4.70;;
34926;SDS011;21132;48.308;14.274;2023-06-22T10:24:17;14.93;;;5.40;;
34926;SDS011;21132;48.308;14.274;2023-06-22T10:26:42;15.20;;;5.95;;
34926;SDS011;21132;48.308;14.274;2023-06-22T10:29:08;10.30;;;5.00;;
34926;SDS011;21132;48.308;14.274;2023-06-22T10:31:39;10.10;;;4.80;;
34926;SDS011;21132;48.308;14.274;2023-06-22T10:34:05;7.22;;;4.50;;
34926;SDS011;21132;48.308;14.274;2023-06-22T10:36:30;9.93;;;5.45;;
34926;SDS011;21132;48.308;14.274;2023-06-22T10:38:58;10.25;;;4.95;;
34926;SDS011;21132;48.308;14.274;2023-06-22T10:41:29;11.60;;;4.88;;
34926;SDS011;21132;48.308;14.274;2023-06-22T10:43:55;13.10;;;5.70;;
34926;SDS011;21132;48.308;14.274;2023-06-22T10:46:24;10.88;;;6.03;;
34926;SDS011;21132;48.308;14.274;2023-06-22T10:48:53;15.48;;;5.35;;
34926;SDS011;21132;48.308;14.274;2023-06-22T10:51:25;8.20;;;5.15;;
34926;SDS011;21132;48.308;14.274;2023-06-22T10:53:58;10.85;;;5.55;;
34926;SDS011;21132;48.308;14.274;2023-06-22T10:56:26;15.10;;;5.20;;
34926;SDS011;21132;48.308;14.274;2023-06-22T10:58:57;12.48;;;5.05;;
34926;SDS011;21132;48.308;14.274;2023-06-22T11:01:23;13.63;;;5.50;;
34926;SDS011;21132;48.308;14.274;2023-06-22T11:03:48;9.52;;;5.35;;
34926;SDS011;21132;48.308;14.274;2023-06-22T11:06:21;12.50;;;5.70;;
34926;SDS011;21132;48.308;14.274;2023-06-22T11:08:52;9.95;;;5.03;;
34926;SDS011;21132;48.308;14.274;2023-06-22T11:11:23;8.93;;;5.40;;
34926;SDS011;21132;48.308;14.274;2023-06-22T11:13:56;11.23;;;5.10;;
34926;SDS011;21132;48.308;14.274;2023-06-22T11:16:27;13.77;;;5.00;;
34926;SDS011;21132;48.308;14.274;2023-06-22T11:18:58;19.00;;;6.18;;
34926;SDS011;21132;48.308;14.274;2023-06-22T11:21:28;18.65;;;6.18;;
34926;SDS011;21132;48.308;14.274;2023-06-22T11:23:59;14.20;;;5.35;;
34926;SDS011;21132;48.308;14.274;2023-06-22T11:26:27;14.38;;;4.80;;
34926;SDS011;21132;48.308;14.274;2023-06-22T11:28:53;12.70;;;5.13;;
34926;SDS011;21132;48.308;14.274;2023-06-22T11:31:24;10.23;;;4.78;;
34926;SDS011;21132;48.308;14.274;2023-06-22T11:33:55;18.48;;;5.78;;
34926;SDS011;21132;48.308;14.274;2023-06-22T11:36:26;9.80;;;5.28;;
34926;SDS011;21132;48.308;14.274;2023-06-22T11:38:57;14.13;;;4.80;;
34926;SDS011;21132;48.308;14.274;2023-06-22T11:41:29;13.00;;;5.55;;
34926;SDS011;21132;48.308;14.274;2023-06-22T11:44:00;16.58;;;6.40;;
34926;SDS011;21132;48.308;14.274;2023-06-22T11:46:31;10.45;;;5.55;;
34926;SDS011;21132;48.308;14.274;2023-06-22T11:48:57;12.75;;;6.45;;
34926;SDS011;21132;48.308;14.274;2023-06-22T11:51:28;15.27;;;6.00;;
34926;SDS011;21132;48.308;14.274;2023-06-22T11:54:02;18.90;;;5.60;;
34926;SDS011;21132;48.308;14.274;2023-06-22T11:56:34;10.90;;;5.32;;
34926;SDS011;21132;48.308;14.274;2023-06-22T11:59:04;10.85;;;5.15;;
34926;SDS011;21132;48.308;14.274;2023-06-22T12:01:36;19.30;;;5.10;;
34926;SDS011;21132;48.308;14.274;2023-06-22T12:04:10;14.20;;;5.63;;
34926;SDS011;21132;48.308;14.274;2023-06-22T12:06:41;13.20;;;5.28;;
34926;SDS011;21132;48.308;14.274;2023-06-22T12:09:10;11.30;;;5.07;;
34926;SDS011;21132;48.308;14.274;2023-06-22T12:11:44;19.30;;;6.10;;
34926;SDS011;21132;48.308;14.274;2023-06-22T12:14:12;13.07;;;5.40;;
34926;SDS011;21132;48.308;14.274;2023-06-22T12:16:38;12.48;;;5.45;;
34926;SDS011;21132;48.308;14.274;2023-06-22T12:19:09;17.02;;;6.13;;
34926;SDS011;21132;48.308;14.274;2023-06-22T12:21:41;16.42;;;5.75;;
34926;SDS011;21132;48.308;14.274;2023-06-22T12:24:15;11.43;;;5.65;;
34926;SDS011;21132;48.308;14.274;2023-06-22T12:26:44;14.60;;;6.40;;
34926;SDS011;21132;48.308;14.274;2023-06-22T12:29:10;14.52;;;5.05;;
34926;SDS011;21132;48.308;14.274;2023-06-22T12:31:35;20.83;;;6.47;;
34926;SDS011;21132;48.308;14.274;2023-06-22T12:34:04;16.60;;;6.15;;
34926;SDS011;21132;48.308;14.274;2023-06-22T12:36:32;19.65;;;5.68;;
34926;SDS011;21132;48.308;14.274;2023-06-22T12:38:58;12.75;;;4.88;;
34926;SDS011;21132;48.308;14.274;2023-06-22T12:41:30;14.55;;;5.47;;
34926;SDS011;21132;48.308;14.274;2023-06-22T12:43:56;17.50;;;6.47;;
34926;SDS011;21132;48.308;14.274;2023-06-22T12:46:23;17.63;;;5.32;;
34926;SDS011;21132;48.308;14.274;2023-06-22T12:48:49;17.90;;;6.88;;
34926;SDS011;21132;48.308;14.274;2023-06-22T12:51:21;27.65;;;6.85;;
34926;SDS011;21132;48.308;14.274;2023-06-22T12:53:50;9.68;;;5.28;;
34926;SDS011;21132;48.308;14.274;2023-06-22T12:56:19;18.40;;;5.93;;
34926;SDS011;21132;48.308;14.274;2023-06-22T12:58:44;12.73;;;5.50;;
34926;SDS011;21132;48.308;14.274;2023-06-22T13:01:10;11.77;;;5.70;;
34926;SDS011;21132;48.308;14.274;2023-06-22T13:03:36;12.25;;;5.70;;
34926;SDS011;21132;48.308;14.274;2023-06-22T13:06:02;11.85;;;6.18;;
34926;SDS011;21132;48.308;14.274;2023-06-22T13:08:30;18.65;;;5.60;;
34926;SDS011;21132;48.308;14.274;2023-06-22T13:10:56;18.42;;;5.65;;
34926;SDS011;21132;48.308;14.274;2023-06-22T13:13:23;12.18;;;6.13;;
34926;SDS011;21132;48.308;14.274;2023-06-22T13:15:52;14.50;;;6.32;;
34926;SDS011;21132;48.308;14.274;2023-06-22T13:18:20;21.88;;;6.95;;
34926;SDS011;21132;48.308;14.274;2023-06-22T13:20:46;12.35;;;5.55;;
34926;SDS011;21132;48.308;14.274;2023-06-22T13:23:12;14.90;;;6.18;;
34926;SDS011;21132;48.308;14.274;2023-06-22T13:25:38;11.77;;;5.18;;
34926;SDS011;21132;48.308;14.274;2023-06-22T13:28:04;9.70;;;6.20;;
34926;SDS011;21132;48.308;14.274;2023-06-22T13:30:38;15.23;;;5.78;;
34926;SDS011;21132;48.308;14.274;2023-06-22T13:33:04;10.32;;;4.95;;
34926;SDS011;21132;48.308;14.274;2023-06-22T13:35:30;13.75;;;6.07;;
34926;SDS011;21132;48.308;14.274;2023-06-22T13:37:55;23.42;;;6.53;;
34926;SDS011;21132;48.308;14.274;2023-06-22T13:40:21;9.82;;;5.72;;
34926;SDS011;21132;48.308;14.274;2023-06-22T13:42:47;18.65;;;5.80;;
34926;SDS011;21132;48.308;14.274;2023-06-22T13:45:12;12.88;;;5.95;;
34926;SDS011;21132;48.308;14.274;2023-06-22T13:47:38;12.88;;;5.60;;
34926;SDS011;21132;48.308;14.274;2023-06-22T13:50:04;9.27;;;5.20;;
34926;SDS011;21132;48.308;14.274;2023-06-22T13:52:33;12.38;;;6.38;;
34926;SDS011;21132;48.308;14.274;2023-06-22T13:54:59;13.15;;;6.00;;
34926;SDS011;21132;48.308;14.274;2023-06-22T13:57:25;17.98;;;6.10;;
34926;SDS011;21132;48.308;14.274;2023-06-22T13:59:56;8.15;;;5.40;;
34926;SDS011;21132;48.308;14.274;2023-06-22T14:02:27;13.07;;;6.15;;
34926;SDS011;21132;48.308;14.274;2023-06-22T14:04:53;18.33;;;6.50;;
34926;SDS011;21132;48.308;14.274;2023-06-22T14:07:19;16.80;;;6.35;;
34926;SDS011;21132;48.308;14.274;2023-06-22T14:09:45;17.38;;;7.25;;
34926;SDS011;21132;48.308;14.274;2023-06-22T14:12:12;15.85;;;6.38;;
34926;SDS011;21132;48.308;14.274;2023-06-22T14:14:40;13.13;;;5.93;;
34926;SDS011;21132;48.308;14.274;2023-06-22T14:17:06;15.95;;;6.10;;
34926;SDS011;21132;48.308;14.274;2023-06-22T14:19:32;14.70;;;5.00;;
34926;SDS011;21132;48.308;14.274;2023-06-22T14:21:57;17.42;;;6.80;;
34926;SDS011;21132;48.308;14.274;2023-06-22T14:24:26;19.45;;;6.43;;
34926;SDS011;21132;48.308;14.274;2023-06-22T14:26:51;13.20;;;5.45;;
34926;SDS011;21132;48.308;14.274;2023-06-22T14:29:17;13.13;;;5.80;;
34926;SDS011;21132;48.308;14.274;2023-06-22T14:31:45;11.13;;;6.15;;
34926;SDS011;21132;48.308;14.274;2023-06-22T14:34:11;12.18;;;6.75;;
34926;SDS011;21132;48.308;14.274;2023-06-22T14:36:37;11.15;;;6.45;;
34926;SDS011;21132;48.308;14.274;2023-06-22T14:39:06;15.02;;;6.68;;
34926;SDS011;21132;48.308;14.274;2023-06-22T14:41:32;12.48;;;6.68;;
34926;SDS011;21132;48.308;14.274;2023-06-22T14:43:58;14.52;;;6.38;;
34926;SDS011;21132;48.308;14.274;2023-06-22T14:46:27;21.58;;;6.68;;
34926;SDS011;21132;48.308;14.274;2023-06-22T14:48:55;14.30;;;7.80;;
34926;SDS011;21132;48.308;14.274;2023-06-22T14:51:24;13.00;;;6.75;;
34926;SDS011;21132;48.308;14.274;2023-06-22T14:53:52;16.88;;;7.22;;
34926;SDS011;21132;48.308;14.274;2023-06-22T14:56:18;19.35;;;8.15;;
34926;SDS011;21132;48.308;14.274;2023-06-22T14:58:43;14.13;;;7.28;;
34926;SDS011;21132;48.308;14.274;2023-06-22T15:01:10;17.98;;;8.55;;
34926;SDS011;21132;48.308;14.274;2023-06-22T15:03:39;10.38;;;6.22;;
34926;SDS011;21132;48.308;14.274;2023-06-22T15:06:05;13.10;;;7.22;;
34926;SDS011;21132;48.308;14.274;2023-06-22T15:08:31;14.13;;;7.07;;
34926;SDS011;21132;48.308;14.274;2023-06-22T15:10:59;17.67;;;7.72;;
34926;SDS011;21132;48.308;14.274;2023-06-22T15:13:30;19.27;;;7.32;;
34926;SDS011;21132;48.308;14.274;2023-06-22T15:15:58;9.27;;;6.10;;
34926;SDS011;21132;48.308;14.274;2023-06-22T15:18:31;11.77;;;6.68;;
34926;SDS011;21132;48.308;14.274;2023-06-22T15:21:01;17.23;;;7.47;;
34926;SDS011;21132;48.308;14.274;2023-06-22T15:23:28;12.80;;;6.97;;
34926;SDS011;21132;48.308;14.274;2023-06-22T15:25:54;13.23;;;6.78;;
34926;SDS011;21132;48.308;14.274;2023-06-22T15:28:23;15.60;;;7.78;;
34926;SDS011;21132;48.308;14.274;2023-06-22T15:30:49;11.13;;;7.05;;
34926;SDS011;21132;48.308;14.274;2023-06-22T15:33:15;14.88;;;7.97;;
34926;SDS011;21132;48.308;14.274;2023-06-22T15:35:44;16.73;;;8.15;;
34926;SDS011;21132;48.308;14.274;2023-06-22T15:38:09;12.70;;;7.05;;
34926;SDS011;21132;48.308;14.274;2023-06-22T15:40:38;18.10;;;7.97;;
34926;SDS011;21132;48.308;14.274;2023-06-22T15:43:03;14.30;;;7.55;;
34926;SDS011;21132;48.308;14.274;2023-06-22T15:45:29;15.02;;;7.70;;
34926;SDS011;21132;48.308;14.274;2023-06-22T15:47:55;10.15;;;6.60;;
34926;SDS011;21132;48.308;14.274;2023-06-22T15:50:26;13.02;;;7.13;;
34926;SDS011;21132;48.308;14.274;2023-06-22T15:52:51;14.50;;;6.55;;
34926;SDS011;21132;48.308;14.274;2023-06-22T15:55:19;12.35;;;6.82;;
34926;SDS011;21132;48.308;14.274;2023-06-22T15:57:47;15.48;;;7.55;;
34926;SDS011;21132;48.308;14.274;2023-06-22T16:00:17;10.35;;;6.13;;
34926;SDS011;21132;48.308;14.274;2023-06-22T16:02:44;14.10;;;7.07;;
34926;SDS011;21132;48.308;14.274;2023-06-22T16:05:10;13.98;;;6.22;;
34926;SDS011;21132;48.308;14.274;2023-06-22T16:07:37;13.70;;;6.38;;
34926;SDS011;21132;48.308;14.274;2023-06-22T16:10:06;12.60;;;6.72;;